Time;durP1;ratioP1;P1;durP2;ratioP2;P2;SDS_P1;SDS_P2;PMS_P1;PMS_P2;Temp;Humidity;BMP_temperature;BMP_pressure;BME280_temperature;BME280_humidity;BME280_pressure;Samples;Min_cycle;Max_cycle;Signal;HPM_P1;HPM_P2
2022/07/27 00:02:55;;;;;;;79.10;51.28;;;;;;;16.53;97.48;98650.59;2172466;81;20933;-78
2022/07/27 00:05:55;;;;;;;84.35;57.62;;;;;;;16.52;97.74;98651.48;2172113;81;21367;-78
2022/07/27 00:08:56;;;;;;;68.65;49.85;;;;;;;16.51;97.85;98651.06;2171537;81;20929;-79
2022/07/27 00:11:56;;;;;;;81.90;53.73;;;;;;;16.46;97.75;98651.54;2172640;81;20946;-79
2022/07/27 00:14:58;;;;;;;65.08;44.08;;;;;;;16.43;98.29;98648.95;2172957;81;20905;-79
2022/07/27 00:17:59;;;;;;;63.65;42.70;;;;;;;16.36;98.04;98646.43;2172835;81;21096;-79
2022/07/27 00:20:57;;;;;;;62.05;42.30;;;;;;;16.30;98.10;98647.39;2171317;81;20898;-79
2022/07/27 00:23:58;;;;;;;54.53;39.20;;;;;;;16.27;98.33;98650.52;2171226;81;20909;-80
2022/07/27 00:26:58;;;;;;;76.77;48.55;;;;;;;16.21;98.32;98651.47;2172782;81;21332;-78
2022/07/27 00:29:58;;;;;;;76.33;51.85;;;;;;;16.18;98.25;98653.70;2171725;81;20960;-80
2022/07/27 00:32:59;;;;;;;72.60;49.80;;;;;;;16.19;98.29;98649.30;2172300;81;20946;-78
2022/07/27 00:36:01;;;;;;;70.50;51.02;;;;;;;16.18;98.24;98655.02;2171314;81;20905;-78
2022/07/27 00:39:00;;;;;;;72.05;54.45;;;;;;;16.18;98.24;98655.46;2171193;81;21277;-78
2022/07/27 00:42:00;;;;;;;67.70;49.85;;;;;;;16.20;98.24;98654.99;2171774;81;20948;-79
2022/07/27 00:45:01;;;;;;;59.20;44.13;;;;;;;16.23;97.97;98651.00;2172682;81;20905;-78
2022/07/27 00:48:01;;;;;;;62.03;44.67;;;;;;;16.27;97.87;98649.20;2172610;81;20885;-78
2022/07/27 00:51:01;;;;;;;46.65;37.35;;;;;;;16.28;97.97;98658.39;2172654;81;20957;-79
2022/07/27 00:54:02;;;;;;;58.25;41.75;;;;;;;16.27;97.91;98652.70;2171339;81;20901;-79
2022/07/27 00:57:02;;;;;;;52.98;38.15;;;;;;;16.24;97.79;98656.25;2172546;81;20874;-79
2022/07/27 01:00:02;;;;;;;51.00;39.83;;;;;;;16.24;97.72;98658.01;2172527;81;20969;-79
2022/07/27 01:03:03;;;;;;;51.55;36.15;;;;;;;16.24;97.63;98661.96;2172304;81;20976;-80
2022/07/27 01:06:03;;;;;;;44.30;34.58;;;;;;;16.25;97.57;98667.66;2170574;81;20914;-79
2022/07/27 01:12:22;;;;;;;45.55;35.40;;;;;;;16.24;97.21;98674.69;2173496;82;21325;-81
2022/07/27 01:15:23;;;;;;;39.78;32.23;;;;;;;16.25;97.18;98671.60;2173761;81;20933;-78
2022/07/27 01:18:23;;;;;;;45.25;31.10;;;;;;;16.25;97.05;98667.66;2173629;81;20957;-78
2022/07/27 01:21:24;;;;;;;38.15;30.55;;;;;;;16.23;97.34;98673.39;2173718;81;20917;-78
2022/07/27 01:24:24;;;;;;;44.67;31.05;;;;;;;16.20;96.88;98670.80;2173597;81;21004;-79
2022/07/27 01:27:24;;;;;;;41.33;31.65;;;;;;;16.20;96.92;98670.80;2173484;81;20902;-79
2022/07/27 01:30:31;;;;;;;40.55;30.60;;;;;;;16.20;97.08;98669.03;2173373;81;21386;-78
2022/07/27 01:33:28;;;;;;;45.03;34.97;;;;;;;16.19;96.99;98669.92;2173523;81;20909;-79
2022/07/27 01:36:29;;;;;;;41.15;29.37;;;;;;;16.18;96.80;98668.63;2173559;81;20902;-79
2022/07/27 01:39:29;;;;;;;45.50;30.10;;;;;;;16.18;96.87;98665.99;2173722;81;20925;-78
2022/07/27 01:42:29;;;;;;;42.43;29.85;;;;;;;16.17;96.85;98662.48;2173896;81;20976;-79
2022/07/27 01:45:30;;;;;;;37.67;27.95;;;;;;;16.18;96.83;98664.23;2173434;81;20925;-79
2022/07/27 01:48:30;;;;;;;36.42;28.55;;;;;;;16.20;97.07;98668.16;2173609;81;20943;-78
2022/07/27 01:51:31;;;;;;;39.55;28.45;;;;;;;16.17;96.86;98658.54;2173304;81;21308;-78
2022/07/27 01:54:31;;;;;;;38.40;26.62;;;;;;;16.16;96.92;98659.87;2173166;82;20925;-79
2022/07/27 01:57:31;;;;;;;38.65;29.72;;;;;;;16.09;96.81;98667.43;2173412;81;20952;-79
2022/07/27 02:00:32;;;;;;;37.30;28.85;;;;;;;16.05;97.28;98665.28;2173404;81;20929;-78
2022/07/27 02:03:32;;;;;;;37.10;28.42;;;;;;;16.01;97.11;98662.71;2173322;81;21343;-78
2022/07/27 02:06:33;;;;;;;36.20;26.75;;;;;;;16.00;97.16;98660.52;2174342;81;20968;-79
2022/07/27 02:09:33;;;;;;;33.67;26.95;;;;;;;15.99;97.33;98667.13;2179994;81;20948;-78
2022/07/27 02:12:37;;;;;;;36.85;28.38;;;;;;;15.98;97.34;98671.52;2179942;81;20913;-78
2022/07/27 02:15:37;;;;;;;37.90;27.05;;;;;;;15.95;97.43;98673.32;2172514;82;20945;-78
2022/07/27 02:18:37;;;;;;;37.67;28.75;;;;;;;15.94;97.61;98669.81;2171050;81;20914;-78
2022/07/27 02:21:38;;;;;;;36.13;26.70;;;;;;;15.96;97.47;98676.38;2170703;81;21321;-80
2022/07/27 02:24:38;;;;;;;37.40;26.90;;;;;;;15.94;97.29;98679.03;2170832;81;20878;-79
2022/07/27 02:27:39;;;;;;;34.88;26.93;;;;;;;15.95;97.41;98675.95;2170756;81;20970;-81
2022/07/27 02:30:39;;;;;;;34.15;26.33;;;;;;;15.96;97.68;98682.95;2170492;81;21311;-81
2022/07/27 02:33:39;;;;;;;40.65;29.42;;;;;;;15.96;97.48;98681.20;2170726;81;20952;-81
2022/07/27 02:36:40;;;;;;;36.28;27.87;;;;;;;15.97;97.41;98686.89;2171104;81;20904;-81
2022/07/27 02:39:40;;;;;;;35.83;27.05;;;;;;;15.97;97.65;98688.65;2170734;81;20948;-81
2022/07/27 02:42:41;;;;;;;31.02;27.20;;;;;;;15.95;97.36;98687.80;2170784;81;20945;-81
2022/07/27 02:45:41;;;;;;;41.63;27.95;;;;;;;15.91;97.57;98689.15;2170833;81;20914;-80
2022/07/27 02:48:41;;;;;;;39.85;29.20;;;;;;;15.89;97.66;98693.56;2171141;81;20937;-80
2022/07/27 02:51:42;;;;;;;38.78;26.27;;;;;;;15.86;97.66;98694.05;2170676;81;20969;-78
2022/07/27 02:54:42;;;;;;;41.23;26.30;;;;;;;15.83;97.99;98700.66;2170858;81;20925;-78
2022/07/27 02:57:43;;;;;;;33.33;25.32;;;;;;;15.77;98.11;98700.28;2170624;81;20925;-78
2022/07/27 03:00:43;;;;;;;44.05;25.15;;;;;;;15.76;98.13;98702.94;2170551;81;20996;-80
2022/07/27 03:03:43;;;;;;;37.48;25.40;;;;;;;15.75;98.33;98705.14;2170688;81;20948;-78
2022/07/27 03:06:44;;;;;;;37.67;25.08;;;;;;;15.71;98.07;98709.56;2170888;81;20953;-78
2022/07/27 03:09:44;;;;;;;36.15;25.32;;;;;;;15.67;98.00;98710.48;2171100;81;20921;-78
2022/07/27 03:12:45;;;;;;;34.67;25.17;;;;;;;15.64;98.09;98709.20;2171465;81;21268;-78
2022/07/27 03:15:45;;;;;;;30.10;25.25;;;;;;;15.62;98.34;98719.31;2171261;81;20909;-78
2022/07/27 03:18:45;;;;;;;35.15;23.87;;;;;;;15.59;98.20;98719.74;2170506;81;20956;-78
2022/07/27 03:21:46;;;;;;;31.55;23.47;;;;;;;15.57;98.06;98729.41;2170937;81;20938;-77
2022/07/27 03:24:46;;;;;;;40.95;24.65;;;;;;;15.54;98.11;98733.80;2170116;81;20977;-78
2022/07/27 03:27:47;;;;;;;32.08;25.32;;;;;;;15.52;98.20;98743.45;2171455;81;21270;-75
2022/07/27 03:30:47;;;;;;;34.88;23.38;;;;;;;15.52;98.03;98737.75;2171102;81;21000;-78
2022/07/27 03:33:47;;;;;;;32.23;23.35;;;;;;;15.54;97.90;98743.87;2173477;81;20981;-79
2022/07/27 03:36:48;;;;;;;29.95;22.30;;;;;;;15.56;97.81;98753.94;2170558;81;20902;-82
2022/07/27 03:39:48;;;;;;;28.90;23.10;;;;;;;15.59;97.54;98758.33;2170566;81;20960;-80
2022/07/27 03:42:49;;;;;;;40.03;24.82;;;;;;;15.60;97.32;98758.35;2171806;81;21032;-78
2022/07/27 03:45:49;;;;;;;34.53;22.50;;;;;;;15.59;97.43;98755.70;2170487;82;20921;-77
2022/07/27 03:48:49;;;;;;;28.62;21.90;;;;;;;15.58;97.15;98756.14;2170877;81;20917;-80
2022/07/27 03:51:50;;;;;;;29.25;21.52;;;;;;;15.62;96.92;98756.15;2171116;81;20936;-80
2022/07/27 03:54:50;;;;;;;33.90;21.93;;;;;;;15.64;96.76;98757.88;2169742;81;20901;-80
2022/07/27 03:57:51;;;;;;;25.00;20.77;;;;;;;15.71;96.63;98755.61;2170675;81;20889;-80
2022/07/27 04:00:51;;;;;;;23.27;19.65;;;;;;;15.83;96.31;98757.25;2170206;81;20980;-82
2022/07/27 04:03:51;;;;;;;27.60;18.30;;;;;;;15.91;95.98;98765.48;2171009;81;21345;-81
2022/07/27 04:06:52;;;;;;;28.10;18.30;;;;;;;16.02;95.54;98757.91;2169969;81;20969;-82
2022/07/27 04:09:52;;;;;;;21.75;16.97;;;;;;;16.09;95.24;98753.00;2171913;81;20956;-82
2022/07/27 04:12:53;;;;;;;23.75;16.90;;;;;;;16.17;95.03;98757.29;2172451;81;20944;-78
2022/07/27 04:15:56;;;;;;;24.77;16.67;;;;;;;16.19;94.76;98754.20;2172123;81;21681;-78
2022/07/27 04:18:53;;;;;;;26.33;16.30;;;;;;;16.20;94.57;98753.75;2171523;81;20937;-78
2022/07/27 04:21:54;;;;;;;22.02;14.83;;;;;;;16.28;94.61;98762.42;2171598;81;20984;-78
2022/07/27 04:24:54;;;;;;;19.82;14.78;;;;;;;16.35;94.36;98759.27;2172041;81;21340;-78
2022/07/27 04:27:55;;;;;;;25.08;14.73;;;;;;;16.46;94.32;98760.88;2171913;81;20968;-78
2022/07/27 04:30:55;;;;;;;19.48;13.65;;;;;;;16.65;94.23;98771.20;2171400;82;20992;-78
2022/07/27 04:33:55;;;;;;;20.48;13.55;;;;;;;16.80;93.65;98773.20;2171440;82;20929;-79
2022/07/27 04:36:56;;;;;;;15.35;12.65;;;;;;;16.93;93.12;98779.63;2171314;82;20961;-79
2022/07/27 04:39:56;;;;;;;16.65;12.30;;;;;;;16.92;92.46;98776.56;2170879;81;21364;-78
2022/07/27 04:42:57;;;;;;;14.00;12.60;;;;;;;16.82;92.40;98778.02;2171296;81;21047;-78
2022/07/27 04:45:57;;;;;;;19.32;12.50;;;;;;;16.75;92.46;98776.36;2171532;82;20957;-79
2022/07/27 04:48:58;;;;;;;72.60;14.25;;;;;;;16.74;92.54;98774.61;2172711;81;20940;-78
2022/07/27 04:51:58;;;;;;;18.70;11.90;;;;;;;16.81;92.48;98776.72;2172433;81;21004;-77
2022/07/27 04:54:59;;;;;;;16.25;12.15;;;;;;;17.03;92.21;98772.87;2171887;81;20972;-79
2022/07/27 04:57:59;;;;;;;21.57;11.57;;;;;;;17.20;91.54;98769.52;2171546;82;20952;-80
2022/07/27 05:00:59;;;;;;;18.15;11.20;;;;;;;17.37;90.84;98767.95;2171530;81;21160;-80
2022/07/27 05:04:00;;;;;;;15.88;10.65;;;;;;;17.56;90.04;98761.92;2171581;81;20957;-79
2022/07/27 05:07:00;;;;;;;14.28;10.48;;;;;;;17.64;89.35;98766.61;2171678;81;20965;-80
2022/07/27 05:10:01;;;;;;;14.45;9.60;;;;;;;17.72;89.29;98759.46;2174622;81;20932;-79
2022/07/27 05:13:01;;;;;;;14.58;9.73;;;;;;;17.81;88.09;98767.21;2169919;81;20945;-83
2022/07/27 05:16:01;;;;;;;23.47;9.70;;;;;;;17.81;86.75;98765.89;2169168;81;20937;-81
2022/07/27 05:19:02;;;;;;;14.78;8.90;;;;;;;17.86;86.95;98771.53;2169665;81;21415;-81
2022/07/27 05:22:02;;;;;;;10.15;7.08;;;;;;;17.88;86.36;98767.09;2169606;81;21000;-81
2022/07/27 05:25:03;;;;;;;13.40;7.70;;;;;;;17.94;85.56;98772.27;2169711;81;20957;-83
2022/07/27 05:28:04;;;;;;;11.57;6.70;;;;;;;18.01;85.98;98775.20;2169624;81;20933;-83
2022/07/27 05:31:03;;;;;;;7.47;6.67;;;;;;;18.13;84.58;98780.25;2179338;80;21085;-80
2022/07/27 05:34:04;;;;;;;8.33;4.30;;;;;;;18.21;83.26;98783.65;2179140;81;21345;-81
2022/07/27 05:40:16;;;;;;;7.60;4.87;;;;;;;18.54;81.81;98783.86;2291036;77;22300;-80
2022/07/27 05:43:16;;;;;;;7.97;4.08;;;;;;;18.65;80.60;98785.86;2239857;79;20947;-80
2022/07/27 05:46:17;;;;;;;9.80;3.50;;;;;;;18.72;78.07;98783.50;2240901;79;20928;-82
2022/07/27 05:49:17;;;;;;;12.20;3.50;;;;;;;18.98;77.50;98771.02;2240987;79;20931;-81
2022/07/27 05:52:19;;;;;;;7.20;2.87;;;;;;;19.08;71.25;98770.80;2241102;79;21283;-80
2022/07/27 05:55:18;;;;;;;8.68;2.22;;;;;;;19.04;71.16;98782.77;2240485;79;20932;-80
2022/07/27 05:58:18;;;;;;;6.22;2.90;;;;;;;19.13;69.73;98784.36;2240021;79;21018;-80
2022/07/27 06:01:19;;;;;;;9.55;2.42;;;;;;;19.19;68.79;98778.47;2240177;79;21406;-81
2022/07/27 06:04:19;;;;;;;5.85;2.60;;;;;;;19.26;68.53;98776.55;2240536;79;20962;-80
2022/07/27 06:10:39;;;;;;;9.43;3.00;;;;;;;19.36;67.46;98779.39;2239753;79;20908;-80
2022/07/27 06:13:39;;;;;;;3.90;2.20;;;;;;;19.42;65.47;98784.53;2239524;79;20998;-80
2022/07/27 06:16:39;;;;;;;7.20;2.95;;;;;;;19.50;64.89;98781.70;2239934;79;20935;-79
2022/07/27 06:19:40;;;;;;;12.55;2.95;;;;;;;19.57;65.99;98781.98;2239097;79;21334;-81
2022/07/27 06:22:40;;;;;;;9.25;2.45;;;;;;;19.73;65.47;98787.30;2239394;79;20955;-80
2022/07/27 06:25:41;;;;;;;8.58;2.87;;;;;;;19.94;64.17;98789.42;2238314;79;20900;-78
2022/07/27 06:28:41;;;;;;;4.37;2.50;;;;;;;20.12;64.25;98795.13;2238268;79;21347;-79
2022/07/27 06:31:41;;;;;;;4.22;2.30;;;;;;;20.16;61.47;98801.62;2238276;79;21022;-80
2022/07/27 06:34:42;;;;;;;7.10;2.22;;;;;;;20.30;60.57;98798.14;2238546;79;20924;-80
2022/07/27 06:37:51;;;;;;;7.08;2.17;;;;;;;20.45;61.76;98799.52;2240110;79;20956;-80
2022/07/27 06:40:51;;;;;;;5.60;2.58;;;;;;;20.62;59.95;98801.69;2255269;79;21015;-81
2022/07/27 06:43:46;;;;;;;6.33;2.10;;;;;;;20.76;59.47;98806.58;2254545;79;21363;-81
2022/07/27 06:46:46;;;;;;;9.38;2.70;;;;;;;20.84;56.70;98820.52;2254214;79;20893;-80
2022/07/27 06:49:47;;;;;;;16.75;2.80;;;;;;;20.94;58.33;98813.56;2254303;79;20992;-81
2022/07/27 06:52:47;;;;;;;2.33;1.60;;;;;;;21.16;56.28;98814.23;2253872;79;20920;-80
2022/07/27 06:55:47;;;;;;;3.77;1.50;;;;;;;21.25;56.02;98808.66;2252914;79;21346;-81
2022/07/27 06:58:49;;;;;;;4.37;1.70;;;;;;;21.48;56.34;98807.45;2253171;79;21043;-80
2022/07/27 07:01:48;;;;;;;3.42;1.75;;;;;;;21.74;55.52;98798.66;2253137;79;20924;-81
2022/07/27 07:04:49;;;;;;;5.08;2.02;;;;;;;21.94;55.17;98795.31;2252793;79;21657;-82
2022/07/27 07:07:49;;;;;;;4.55;1.82;;;;;;;22.07;53.17;98803.75;2252861;79;21007;-81
2022/07/27 07:10:49;;;;;;;3.72;1.80;;;;;;;22.18;53.75;98796.27;2253425;79;20928;-82
2022/07/27 07:13:50;;;;;;;2.15;1.57;;;;;;;22.31;50.46;98800.22;2252919;79;20956;-81
2022/07/27 07:16:50;;;;;;;40.80;5.30;;;;;;;22.25;49.26;98801.77;2253834;79;20893;-82
2022/07/27 07:19:51;;;;;;;4.15;1.80;;;;;;;22.25;50.95;98814.60;2254226;79;21015;-82
2022/07/27 07:22:51;;;;;;;5.83;2.85;;;;;;;22.20;48.40;98813.90;2253330;79;21272;-81
2022/07/27 07:25:51;;;;;;;26.68;4.50;;;;;;;22.14;48.19;98820.77;2252476;79;20967;-79
2022/07/27 07:28:52;;;;;;;3.25;1.90;;;;;;;22.21;50.19;98811.64;2252563;79;20928;-82
2022/07/27 07:31:52;;;;;;;2.75;1.70;;;;;;;22.48;49.69;98816.89;2252299;78;20932;-81
2022/07/27 07:34:53;;;;;;;2.95;1.95;;;;;;;22.53;49.79;98817.59;2252207;79;21303;-80
2022/07/27 07:37:53;;;;;;;3.92;1.62;;;;;;;22.65;49.94;98817.63;2252230;78;21006;-80
2022/07/27 07:40:53;;;;;;;2.15;1.70;;;;;;;22.78;48.06;98825.09;2259861;79;20972;-81
2022/07/27 07:43:54;;;;;;;4.15;1.70;;;;;;;22.98;47.63;98821.70;2259506;79;21338;-80
2022/07/27 07:46:54;;;;;;;5.05;1.92;;;;;;;23.12;46.88;98834.47;2260216;79;20968;-82
2022/07/27 07:49:55;;;;;;;2.98;1.92;;;;;;;23.19;46.12;98830.64;2260989;79;20956;-82
2022/07/27 07:52:55;;;;;;;2.65;1.50;;;;;;;23.27;47.65;98829.88;2261518;79;21295;-81
2022/07/27 07:55:56;;;;;;;3.05;1.70;;;;;;;23.54;47.53;98825.73;2260448;79;20960;-82
2022/07/27 07:58:56;;;;;;;2.85;1.60;;;;;;;23.65;46.05;98823.52;2260625;79;20935;-80
2022/07/27 08:01:56;;;;;;;5.92;1.55;;;;;;;23.80;46.45;98819.75;2260453;79;20932;-81
2022/07/27 08:04:57;;;;;;;4.55;1.52;;;;;;;23.92;46.08;98827.70;2260623;79;21339;-81
2022/07/27 08:07:57;;;;;;;2.67;1.70;;;;;;;23.91;45.01;98833.09;2260735;79;21002;-81
2022/07/27 08:10:57;;;;;;;3.10;1.55;;;;;;;23.92;46.48;98826.83;2261257;79;20967;-82
2022/07/27 08:13:58;;;;;;;2.65;1.60;;;;;;;24.13;45.70;98833.44;2259612;79;21311;-81
2022/07/27 08:16:58;;;;;;;4.42;1.27;;;;;;;24.47;45.34;98837.36;2260532;79;21223;-82
2022/07/27 08:19:59;;;;;;;2.47;1.80;;;;;;;24.65;44.57;98843.20;2260005;79;21311;-82
2022/07/27 08:22:59;;;;;;;3.55;1.57;;;;;;;24.59;44.42;98844.81;2259436;79;20931;-81
2022/07/27 08:26:00;;;;;;;3.90;1.50;;;;;;;24.75;45.04;98848.98;2259848;79;20984;-82
2022/07/27 08:29:00;;;;;;;3.20;1.50;;;;;;;25.02;42.92;98858.91;2260156;79;21327;-82
2022/07/27 08:32:00;;;;;;;3.92;1.40;;;;;;;25.16;44.42;98850.28;2260085;79;20900;-82
2022/07/27 08:35:01;;;;;;;56.42;7.95;;;;;;;25.41;43.78;98842.82;2259958;79;20944;-80
2022/07/27 08:38:01;;;;;;;3.58;1.82;;;;;;;25.80;43.45;98838.69;2259021;79;21002;-82
2022/07/27 08:41:02;;;;;;;30.02;4.25;;;;;;;25.77;42.10;98840.65;2252506;79;20928;-82
2022/07/27 08:44:02;;;;;;;5.72;1.85;;;;;;;25.67;42.36;98832.22;2253364;79;20889;-83
2022/07/27 08:47:02;;;;;;;3.42;1.70;;;;;;;25.44;41.97;98828.45;2253595;79;20885;-82
2022/07/27 08:50:03;;;;;;;17.02;2.50;;;;;;;25.52;42.40;98834.28;2253730;79;20909;-81
2022/07/27 08:53:03;;;;;;;3.10;1.85;;;;;;;25.67;42.50;98837.56;2253083;79;21289;-80
2022/07/27 08:56:04;;;;;;;5.05;1.72;;;;;;;25.87;42.37;98822.73;2252428;79;20948;-82
2022/07/27 08:59:04;;;;;;;2.70;1.50;;;;;;;26.25;42.16;98828.82;2253559;79;20931;-80
2022/07/27 09:02:04;;;;;;;2.90;1.32;;;;;;;26.39;41.04;98832.14;2254403;79;20928;-81
2022/07/27 09:05:05;;;;;;;2.30;1.62;;;;;;;26.26;41.15;98832.36;2254368;79;20960;-81
2022/07/27 09:08:05;;;;;;;5.03;1.62;;;;;;;26.07;40.16;98828.91;2253386;79;20908;-80
2022/07/27 09:11:06;;;;;;;3.50;1.55;;;;;;;26.09;40.60;98830.56;2253481;79;20925;-82
2022/07/27 09:14:06;;;;;;;5.05;1.45;;;;;;;26.21;40.97;98829.06;2252772;79;20968;-82
2022/07/27 09:17:06;;;;;;;2.33;1.30;;;;;;;26.59;41.09;98825.26;2253660;79;21291;-82
2022/07/27 09:20:07;;;;;;;4.28;1.45;;;;;;;26.83;39.94;98822.20;2252500;79;20967;-82
2022/07/27 09:23:07;;;;;;;2.87;1.75;;;;;;;27.10;39.79;98822.56;2252222;79;20904;-80
2022/07/27 09:26:08;;;;;;;2.25;1.30;;;;;;;27.43;39.13;98819.31;2252783;79;21314;-81
2022/07/27 09:29:08;;;;;;;3.42;1.20;;;;;;;27.21;38.04;98829.52;2251904;79;20904;-82
2022/07/27 09:32:08;;;;;;;2.98;1.42;;;;;;;26.65;38.43;98825.41;2251758;79;21268;-81
2022/07/27 09:35:09;;;;;;;4.45;1.52;;;;;;;26.14;39.37;98824.97;2252671;79;20956;-82
2022/07/27 09:38:09;;;;;;;2.02;1.40;;;;;;;25.88;40.38;98821.79;2252926;79;20947;-81
2022/07/27 09:41:10;;;;;;;2.08;1.47;;;;;;;26.21;40.18;98827.25;2258871;78;20983;-82
2022/07/27 09:44:10;;;;;;;4.17;1.42;;;;;;;26.35;39.94;98823.89;2258911;79;20946;-80
2022/07/27 09:47:10;;;;;;;2.05;1.35;;;;;;;26.75;39.53;98815.06;2260010;79;20909;-81
2022/07/27 09:50:11;;;;;;;1.80;1.05;;;;;;;27.05;39.09;98816.12;2260114;79;21065;-82
2022/07/27 09:53:11;;;;;;;1.40;1.30;;;;;;;27.38;38.26;98819.19;2259952;79;20908;-82
2022/07/27 09:56:12;;;;;;;2.65;1.85;;;;;;;27.65;37.34;98816.30;2260242;79;20916;-80
2022/07/27 09:59:12;;;;;;;2.05;1.40;;;;;;;27.62;36.60;98815.13;2260724;79;20959;-81
2022/07/27 10:02:12;;;;;;;69.82;6.72;;;;;;;27.49;37.40;98804.70;2260292;79;21381;-82
2022/07/27 10:05:16;;;;;;;2.00;1.60;;;;;;;27.52;37.65;98810.75;2260820;79;20888;-81
2022/07/27 10:08:13;;;;;;;2.05;1.40;;;;;;;27.71;36.24;98813.73;2260780;79;20907;-81
2022/07/27 10:11:14;;;;;;;2.80;1.30;;;;;;;27.47;37.00;98801.23;2260299;79;20948;-82
2022/07/27 10:14:14;;;;;;;4.87;1.32;;;;;;;27.91;37.11;98806.27;2259340;79;20876;-81
2022/07/27 10:17:15;;;;;;;6.17;1.22;;;;;;;28.40;36.93;98807.84;2259376;79;20943;-82
2022/07/27 10:20:15;;;;;;;1.42;1.20;;;;;;;28.61;36.03;98812.37;2259363;79;20943;-83
2022/07/27 10:23:16;;;;;;;1.85;1.27;;;;;;;28.75;34.68;98818.64;2259624;79;21436;-82
2022/07/27 10:26:19;;;;;;;3.05;1.10;;;;;;;28.76;35.41;98810.97;2259923;79;20948;-83
2022/07/27 10:29:16;;;;;;;3.00;1.30;;;;;;;28.66;35.39;98815.19;2259619;79;20904;-82
2022/07/27 10:32:17;;;;;;;7.78;1.70;;;;;;;28.39;34.31;98822.23;2260600;79;20924;-83
2022/07/27 10:35:17;;;;;;;3.17;1.40;;;;;;;27.98;34.67;98820.66;2259851;79;20904;-82
2022/07/27 10:38:17;;;;;;;3.85;1.60;;;;;;;27.49;35.76;98820.78;2260580;79;20919;-82
2022/07/27 10:41:18;;;;;;;5.90;1.42;;;;;;;27.23;36.19;98809.73;2227341;79;20964;-82
2022/07/27 10:44:21;;;;;;;2.42;1.55;;;;;;;27.25;36.63;98802.47;2224821;79;21339;-82
2022/07/27 10:47:22;;;;;;;2.05;1.47;;;;;;;27.48;37.05;98802.49;2224959;79;20923;-82
2022/07/27 10:50:22;;;;;;;1.40;1.30;;;;;;;27.83;36.24;98801.84;2225684;79;20900;-82
2022/07/27 10:53:22;;;;;;;3.15;1.57;;;;;;;27.84;35.87;98798.68;2225844;79;21347;-82
2022/07/27 10:56:23;;;;;;;4.42;1.47;;;;;;;28.17;35.87;98803.37;2225499;79;20889;-82
2022/07/27 10:59:23;;;;;;;2.05;1.57;;;;;;;28.48;35.70;98809.58;2225122;80;20912;-82
2022/07/27 11:02:24;;;;;;;2.15;1.55;;;;;;;28.38;34.99;98813.31;2225192;80;20896;-83
2022/07/27 11:05:24;;;;;;;1.55;1.37;;;;;;;28.53;35.28;98817.73;2225807;79;20889;-82
2022/07/27 11:08:25;;;;;;;1.98;1.30;;;;;;;28.45;35.78;98811.98;2225720;80;20916;-80
2022/07/27 11:11:25;;;;;;;5.03;1.72;;;;;;;28.21;35.17;98810.28;2225501;80;20980;-83
2022/07/27 11:14:25;;;;;;;3.60;1.57;;;;;;;27.67;35.53;98813.05;2225840;79;21336;-80
2022/07/27 11:17:26;;;;;;;3.40;1.70;;;;;;;27.59;36.67;98808.58;2225402;79;20909;-81
2022/07/27 11:20:26;;;;;;;3.70;1.87;;;;;;;27.55;36.47;98811.91;2225569;79;20909;-81
2022/07/27 11:23:27;;;;;;;1.67;1.55;;;;;;;27.41;36.72;98809.63;2226044;79;20880;-80
2022/07/27 11:26:27;;;;;;;2.60;1.50;;;;;;;27.26;36.72;98813.58;2225039;79;20877;-83
2022/07/27 11:29:28;;;;;;;2.22;1.60;;;;;;;27.28;37.17;98815.69;2224986;80;20917;-82
2022/07/27 11:32:28;;;;;;;3.55;1.40;;;;;;;27.84;37.25;98807.59;2224643;79;21272;-84
2022/07/27 11:35:28;;;;;;;3.25;1.50;;;;;;;28.29;36.22;98809.84;2224680;79;20904;-82
2022/07/27 11:38:29;;;;;;;1.87;1.50;;;;;;;28.16;35.70;98814.20;2224520;79;20940;-82
2022/07/27 11:41:29;;;;;;;7.53;1.37;;;;;;;27.99;36.18;98810.32;2224632;78;20964;-82
2022/07/27 11:44:30;;;;;;;8.55;2.05;;;;;;;27.82;36.30;98803.27;2225306;79;20948;-83
2022/07/27 11:47:32;;;;;;;5.58;1.95;;;;;;;27.89;36.36;98800.13;2225439;79;20919;-82
2022/07/27 11:50:33;;;;;;;1.62;1.50;;;;;;;27.98;36.57;98799.20;2225016;79;20921;-81
2022/07/27 11:53:33;;;;;;;1.85;1.67;;;;;;;27.83;36.00;98793.80;2224428;79;21293;-81
2022/07/27 11:56:34;;;;;;;2.47;1.55;;;;;;;27.83;36.33;98797.81;2225739;79;20916;-83
2022/07/27 11:59:34;;;;;;;1.87;1.50;;;;;;;27.89;36.84;98792.09;2225380;79;20948;-82
2022/07/27 12:02:35;;;;;;;4.75;1.75;;;;;;;27.44;36.35;98794.23;2224716;79;21398;-80
2022/07/27 12:05:35;;;;;;;3.70;1.95;;;;;;;27.24;37.27;98790.02;2224422;79;20984;-83
2022/07/27 12:08:35;;;;;;;5.95;1.75;;;;;;;27.06;36.86;98789.72;2224500;79;20944;-81
2022/07/27 12:11:36;;;;;;;7.35;1.50;;;;;;;26.99;37.11;98784.31;2223457;79;21003;-82
2022/07/27 12:14:37;;;;;;;3.33;1.70;;;;;;;27.47;37.45;98779.80;2223540;79;20912;-81
2022/07/27 12:17:37;;;;;;;4.65;1.27;;;;;;;28.19;37.23;98783.15;2223654;79;21315;-81
2022/07/27 12:20:37;;;;;;;16.15;2.47;;;;;;;28.87;36.15;98782.11;2223402;79;20935;-80
2022/07/27 12:23:38;;;;;;;2.42;1.30;;;;;;;29.34;34.41;98779.52;2223598;79;20881;-82
2022/07/27 12:26:38;;;;;;;2.37;1.62;;;;;;;29.31;33.27;98784.61;2223380;80;20925;-83
2022/07/27 12:29:38;;;;;;;2.25;1.40;;;;;;;28.74;33.13;98786.50;2223265;79;21408;-82
2022/07/27 12:32:39;;;;;;;2.60;1.57;;;;;;;28.20;34.17;98764.75;2223751;79;20928;-83
2022/07/27 12:35:39;;;;;;;18.80;2.87;;;;;;;28.20;34.17;98764.75;2224169;79;20909;-83
2022/07/27 12:38:40;;;;;;;8.55;2.30;;;;;;;28.43;34.94;98761.54;2224066;79;21347;-79
2022/07/27 12:41:41;;;;;;;3.22;1.40;;;;;;;28.98;34.74;98751.39;2248109;79;21056;-82
2022/07/27 12:44:40;;;;;;;1.57;1.45;;;;;;;29.51;33.75;98747.06;2252845;79;20920;-82
2022/07/27 12:47:41;;;;;;;2.67;1.67;;;;;;;29.74;32.66;98748.20;2252133;79;21338;-81
2022/07/27 12:50:41;;;;;;;3.05;1.50;;;;;;;29.98;33.14;98753.73;2252392;79;20972;-81
2022/07/27 12:53:42;;;;;;;1.60;1.50;;;;;;;30.11;31.29;98750.60;2252898;79;20927;-83
2022/07/27 12:56:42;;;;;;;1.55;1.45;;;;;;;29.73;32.52;98745.99;2252293;79;20964;-83
2022/07/27 12:59:43;;;;;;;3.70;1.50;;;;;;;29.75;31.73;98749.44;2252920;79;21335;-83
2022/07/27 13:02:43;;;;;;;1.40;1.25;;;;;;;29.83;32.34;98742.67;2252945;79;20932;-83
2022/07/27 13:05:43;;;;;;;2.22;1.42;;;;;;;29.77;32.08;98746.64;2254132;79;20952;-82
2022/07/27 13:08:44;;;;;;;1.75;1.30;;;;;;;29.51;32.11;98751.09;2253687;79;21058;-83
2022/07/27 13:11:44;;;;;;;2.45;1.52;;;;;;;29.38;32.78;98742.92;2253083;79;20952;-82
2022/07/27 13:14:45;;;;;;;2.12;1.50;;;;;;;29.44;32.28;98748.41;2253370;79;20908;-81
2022/07/27 13:17:45;;;;;;;4.10;1.40;;;;;;;29.09;31.40;98751.55;2252645;79;21318;-82
2022/07/27 13:20:46;;;;;;;2.02;1.42;;;;;;;28.73;31.93;98753.89;2252501;79;20924;-83
2022/07/27 13:23:46;;;;;;;4.10;1.57;;;;;;;28.27;33.25;98755.39;2252642;79;20968;-83
2022/07/27 13:26:48;;;;;;;1.77;1.52;;;;;;;27.84;34.02;98749.92;2252063;79;20888;-80
2022/07/27 13:29:47;;;;;;;2.05;1.17;;;;;;;27.69;35.21;98752.15;2252864;79;20952;-82
2022/07/27 13:32:47;;;;;;;3.08;1.32;;;;;;;27.55;35.06;98746.70;2252720;79;21355;-81
2022/07/27 13:35:47;;;;;;;2.15;1.40;;;;;;;27.41;35.01;98751.53;2253105;79;20872;-83
2022/07/27 13:38:48;;;;;;;3.35;1.40;;;;;;;27.43;34.97;98754.12;2253542;79;20980;-82
2022/07/27 13:41:51;;;;;;;2.30;1.40;;;;;;;27.78;34.35;98746.27;2260201;78;21382;-82
2022/07/27 13:44:49;;;;;;;1.92;1.60;;;;;;;27.71;34.10;98748.90;2261856;79;21323;-82
2022/07/27 13:47:49;;;;;;;2.95;1.50;;;;;;;27.47;34.56;98751.17;2261952;79;20897;-82
2022/07/27 13:50:49;;;;;;;3.60;1.35;;;;;;;27.83;34.30;98750.87;2262020;78;20920;-81
2022/07/27 13:53:50;;;;;;;4.78;1.95;;;;;;;28.33;34.13;98744.77;2261293;79;20919;-81
2022/07/27 13:56:50;;;;;;;1.57;1.47;;;;;;;28.69;33.27;98743.82;2260571;79;20960;-81
2022/07/27 13:59:51;;;;;;;2.55;1.42;;;;;;;28.92;33.64;98742.38;2260446;79;20916;-81
2022/07/27 14:02:51;;;;;;;2.33;1.20;;;;;;;28.97;33.05;98742.95;2261435;79;20892;-81
2022/07/27 14:05:52;;;;;;;3.50;1.47;;;;;;;28.72;32.86;98742.77;2261592;79;20987;-81
2022/07/27 14:08:52;;;;;;;2.17;1.50;;;;;;;28.15;33.31;98753.44;2261261;79;20884;-83
2022/07/27 14:11:52;;;;;;;3.33;1.67;;;;;;;27.57;34.29;98751.50;2261834;79;20944;-82